sensor_id;sensor_type;location;lat;lon;timestamp;P1;durP1;ratioP1;P2;durP2;ratioP2
8450;SDS011;4262;50.980;13.892;2024-02-26T00:01:05;35.40;;;20.97;;
8450;SDS011;4262;50.980;13.892;2024-02-26T00:03:33;36.40;;;22.17;;
8450;SDS011;4262;50.980;13.892;2024-02-26T00:06:01;36.20;;;22.20;;
8450;SDS011;4262;50.980;13.892;2024-02-26T00:08:28;41.07;;;23.17;;
8450;SDS011;4262;50.980;13.892;2024-02-26T00:10:55;46.70;;;25.03;;
8450;SDS011;4262;50.980;13.892;2024-02-26T00:13:22;44.27;;;23.87;;
8450;SDS011;4262;50.980;13.892;2024-02-26T00:15:49;48.87;;;28.03;;
8450;SDS011;4262;50.980;13.892;2024-02-26T00:18:15;53.27;;;31.60;;
8450;SDS011;4262;50.980;13.892;2024-02-26T00:20:43;55.03;;;28.33;;
8450;SDS011;4262;50.980;13.892;2024-02-26T00:23:10;49.87;;;28.27;;
8450;SDS011;4262;50.980;13.892;2024-02-26T00:25:37;50.97;;;29.00;;
8450;SDS011;4262;50.980;13.892;2024-02-26T00:28:04;54.73;;;26.87;;
8450;SDS011;4262;50.980;13.892;2024-02-26T00:30:31;47.20;;;27.60;;
8450;SDS011;4262;50.980;13.892;2024-02-26T00:32:58;44.13;;;22.70;;
8450;SDS011;4262;50.980;13.892;2024-02-26T00:35:25;42.00;;;24.20;;
8450;SDS011;4262;50.980;13.892;2024-02-26T00:37:53;42.37;;;23.90;;
8450;SDS011;4262;50.980;13.892;2024-02-26T00:40:20;44.03;;;24.90;;
8450;SDS011;4262;50.980;13.892;2024-02-26T00:42:46;37.27;;;22.90;;
8450;SDS011;4262;50.980;13.892;2024-02-26T00:45:13;43.37;;;23.90;;
8450;SDS011;4262;50.980;13.892;2024-02-26T00:47:41;44.63;;;22.97;;
8450;SDS011;4262;50.980;13.892;2024-02-26T00:50:10;36.97;;;23.17;;
8450;SDS011;4262;50.980;13.892;2024-02-26T00:52:37;44.43;;;23.77;;
8450;SDS011;4262;50.980;13.892;2024-02-26T00:55:06;42.20;;;25.13;;
8450;SDS011;4262;50.980;13.892;2024-02-26T00:57:36;49.93;;;24.53;;
8450;SDS011;4262;50.980;13.892;2024-02-26T01:00:04;48.77;;;24.43;;
8450;SDS011;4262;50.980;13.892;2024-02-26T01:02:34;41.93;;;24.10;;
8450;SDS011;4262;50.980;13.892;2024-02-26T01:05:00;36.53;;;22.13;;
8450;SDS011;4262;50.980;13.892;2024-02-26T01:07:28;41.70;;;24.10;;
8450;SDS011;4262;50.980;13.892;2024-02-26T01:09:58;40.83;;;22.20;;
8450;SDS011;4262;50.980;13.892;2024-02-26T01:12:27;40.87;;;23.77;;
8450;SDS011;4262;50.980;13.892;2024-02-26T01:14:53;41.03;;;22.57;;
8450;SDS011;4262;50.980;13.892;2024-02-26T01:17:20;40.63;;;21.50;;
8450;SDS011;4262;50.980;13.892;2024-02-26T01:19:47;37.13;;;20.47;;
8450;SDS011;4262;50.980;13.892;2024-02-26T01:22:14;46.30;;;22.13;;
8450;SDS011;4262;50.980;13.892;2024-02-26T01:24:41;39.13;;;21.53;;
8450;SDS011;4262;50.980;13.892;2024-02-26T01:27:08;42.60;;;22.37;;
8450;SDS011;4262;50.980;13.892;2024-02-26T01:29:36;38.80;;;22.17;;
8450;SDS011;4262;50.980;13.892;2024-02-26T01:32:03;45.10;;;25.40;;
8450;SDS011;4262;50.980;13.892;2024-02-26T01:34:31;49.23;;;23.93;;
8450;SDS011;4262;50.980;13.892;2024-02-26T01:36:58;41.20;;;23.10;;
8450;SDS011;4262;50.980;13.892;2024-02-26T01:39:25;40.97;;;22.53;;
8450;SDS011;4262;50.980;13.892;2024-02-26T01:41:53;42.70;;;21.97;;
8450;SDS011;4262;50.980;13.892;2024-02-26T01:44:19;40.47;;;22.40;;
8450;SDS011;4262;50.980;13.892;2024-02-26T01:46:48;38.07;;;21.77;;
8450;SDS011;4262;50.980;13.892;2024-02-26T01:49:14;39.73;;;19.33;;
8450;SDS011;4262;50.980;13.892;2024-02-26T01:51:43;40.93;;;20.50;;
8450;SDS011;4262;50.980;13.892;2024-02-26T01:54:13;50.83;;;22.47;;
8450;SDS011;4262;50.980;13.892;2024-02-26T01:56:43;44.17;;;20.77;;
8450;SDS011;4262;50.980;13.892;2024-02-26T01:59:10;41.10;;;22.83;;
8450;SDS011;4262;50.980;13.892;2024-02-26T02:01:37;41.10;;;22.40;;
8450;SDS011;4262;50.980;13.892;2024-02-26T02:04:08;37.50;;;21.10;;
8450;SDS011;4262;50.980;13.892;2024-02-26T02:06:35;40.43;;;21.13;;
8450;SDS011;4262;50.980;13.892;2024-02-26T02:09:02;35.83;;;21.80;;
8450;SDS011;4262;50.980;13.892;2024-02-26T02:11:32;36.00;;;20.00;;
8450;SDS011;4262;50.980;13.892;2024-02-26T02:13:59;35.33;;;20.67;;
8450;SDS011;4262;50.980;13.892;2024-02-26T02:16:26;37.00;;;20.53;;
8450;SDS011;4262;50.980;13.892;2024-02-26T02:18:52;39.07;;;22.00;;
8450;SDS011;4262;50.980;13.892;2024-02-26T02:21:21;40.77;;;21.13;;
8450;SDS011;4262;50.980;13.892;2024-02-26T02:23:47;41.57;;;22.33;;
8450;SDS011;4262;50.980;13.892;2024-02-26T02:26:15;42.23;;;21.67;;
8450;SDS011;4262;50.980;13.892;2024-02-26T02:28:42;37.07;;;19.83;;
8450;SDS011;4262;50.980;13.892;2024-02-26T02:31:10;35.97;;;20.00;;
8450;SDS011;4262;50.980;13.892;2024-02-26T02:33:37;35.87;;;19.77;;
8450;SDS011;4262;50.980;13.892;2024-02-26T02:36:04;36.50;;;19.30;;
8450;SDS011;4262;50.980;13.892;2024-02-26T02:38:36;36.70;;;18.23;;
8450;SDS011;4262;50.980;13.892;2024-02-26T02:41:03;30.97;;;19.30;;
8450;SDS011;4262;50.980;13.892;2024-02-26T02:43:30;42.80;;;19.80;;
8450;SDS011;4262;50.980;13.892;2024-02-26T02:45:57;37.70;;;20.07;;
8450;SDS011;4262;50.980;13.892;2024-02-26T02:48:24;34.30;;;18.57;;
8450;SDS011;4262;50.980;13.892;2024-02-26T02:50:51;29.80;;;19.70;;
8450;SDS011;4262;50.980;13.892;2024-02-26T02:53:18;36.37;;;20.10;;
8450;SDS011;4262;50.980;13.892;2024-02-26T02:55:46;33.60;;;19.10;;
8450;SDS011;4262;50.980;13.892;2024-02-26T02:58:13;35.93;;;19.90;;
8450;SDS011;4262;50.980;13.892;2024-02-26T03:00:40;35.27;;;19.47;;
8450;SDS011;4262;50.980;13.892;2024-02-26T03:03:07;33.87;;;18.13;;
8450;SDS011;4262;50.980;13.892;2024-02-26T03:05:34;34.10;;;19.07;;
8450;SDS011;4262;50.980;13.892;2024-02-26T03:08:01;38.27;;;20.27;;
8450;SDS011;4262;50.980;13.892;2024-02-26T03:10:28;33.20;;;19.53;;
8450;SDS011;4262;50.980;13.892;2024-02-26T03:12:56;34.97;;;19.87;;
8450;SDS011;4262;50.980;13.892;2024-02-26T03:15:23;37.83;;;21.10;;
8450;SDS011;4262;50.980;13.892;2024-02-26T03:17:49;34.40;;;19.93;;
8450;SDS011;4262;50.980;13.892;2024-02-26T03:20:16;34.10;;;19.13;;
8450;SDS011;4262;50.980;13.892;2024-02-26T03:22:44;29.00;;;17.50;;
8450;SDS011;4262;50.980;13.892;2024-02-26T03:25:11;29.80;;;17.00;;
8450;SDS011;4262;50.980;13.892;2024-02-26T03:27:38;35.40;;;20.17;;
8450;SDS011;4262;50.980;13.892;2024-02-26T03:30:07;39.33;;;20.17;;
8450;SDS011;4262;50.980;13.892;2024-02-26T03:32:35;33.03;;;19.20;;
8450;SDS011;4262;50.980;13.892;2024-02-26T03:35:02;36.10;;;19.67;;
8450;SDS011;4262;50.980;13.892;2024-02-26T03:37:29;32.30;;;17.40;;
8450;SDS011;4262;50.980;13.892;2024-02-26T03:39:56;32.67;;;19.07;;
8450;SDS011;4262;50.980;13.892;2024-02-26T03:42:23;32.57;;;17.73;;
8450;SDS011;4262;50.980;13.892;2024-02-26T03:44:50;32.03;;;19.40;;
8450;SDS011;4262;50.980;13.892;2024-02-26T03:47:18;31.90;;;17.00;;
8450;SDS011;4262;50.980;13.892;2024-02-26T03:49:45;36.00;;;19.80;;
8450;SDS011;4262;50.980;13.892;2024-02-26T03:52:14;39.80;;;19.50;;
8450;SDS011;4262;50.980;13.892;2024-02-26T03:54:41;39.57;;;19.80;;
8450;SDS011;4262;50.980;13.892;2024-02-26T03:57:08;36.60;;;19.10;;
8450;SDS011;4262;50.980;13.892;2024-02-26T03:59:35;29.50;;;17.83;;
8450;SDS011;4262;50.980;13.892;2024-02-26T04:02:02;32.37;;;18.60;;
8450;SDS011;4262;50.980;13.892;2024-02-26T04:04:34;32.60;;;18.47;;
8450;SDS011;4262;50.980;13.892;2024-02-26T04:07:01;33.60;;;21.30;;
8450;SDS011;4262;50.980;13.892;2024-02-26T04:09:28;37.80;;;19.37;;
8450;SDS011;4262;50.980;13.892;2024-02-26T04:12:01;34.30;;;19.90;;
8450;SDS011;4262;50.980;13.892;2024-02-26T04:14:27;36.10;;;20.00;;
8450;SDS011;4262;50.980;13.892;2024-02-26T04:16:54;30.37;;;17.70;;
8450;SDS011;4262;50.980;13.892;2024-02-26T04:19:21;36.77;;;20.23;;
8450;SDS011;4262;50.980;13.892;2024-02-26T04:21:50;36.20;;;20.10;;
8450;SDS011;4262;50.980;13.892;2024-02-26T04:24:16;36.87;;;19.13;;
8450;SDS011;4262;50.980;13.892;2024-02-26T04:26:43;35.70;;;20.53;;
8450;SDS011;4262;50.980;13.892;2024-02-26T04:29:10;47.70;;;21.07;;
8450;SDS011;4262;50.980;13.892;2024-02-26T04:31:36;36.47;;;19.63;;
8450;SDS011;4262;50.980;13.892;2024-02-26T04:34:05;37.00;;;19.60;;
8450;SDS011;4262;50.980;13.892;2024-02-26T04:36:32;38.93;;;21.57;;
8450;SDS011;4262;50.980;13.892;2024-02-26T04:39:00;41.53;;;19.80;;
8450;SDS011;4262;50.980;13.892;2024-02-26T04:41:26;38.80;;;19.60;;
8450;SDS011;4262;50.980;13.892;2024-02-26T04:43:53;38.57;;;20.73;;
8450;SDS011;4262;50.980;13.892;2024-02-26T04:46:22;39.07;;;20.70;;
8450;SDS011;4262;50.980;13.892;2024-02-26T04:48:49;38.57;;;19.27;;
8450;SDS011;4262;50.980;13.892;2024-02-26T04:51:16;38.03;;;20.70;;
8450;SDS011;4262;50.980;13.892;2024-02-26T04:53:43;34.50;;;19.30;;
8450;SDS011;4262;50.980;13.892;2024-02-26T04:56:11;38.50;;;20.10;;
8450;SDS011;4262;50.980;13.892;2024-02-26T04:58:37;42.03;;;19.93;;
8450;SDS011;4262;50.980;13.892;2024-02-26T05:01:07;31.03;;;18.03;;
8450;SDS011;4262;50.980;13.892;2024-02-26T05:03:35;34.43;;;19.20;;
8450;SDS011;4262;50.980;13.892;2024-02-26T05:06:02;43.60;;;19.73;;
8450;SDS011;4262;50.980;13.892;2024-02-26T05:08:29;43.23;;;19.10;;
8450;SDS011;4262;50.980;13.892;2024-02-26T05:10:56;36.83;;;20.10;;
8450;SDS011;4262;50.980;13.892;2024-02-26T05:13:24;37.97;;;18.90;;
8450;SDS011;4262;50.980;13.892;2024-02-26T05:15:51;41.50;;;18.63;;
8450;SDS011;4262;50.980;13.892;2024-02-26T05:18:18;43.50;;;21.30;;
8450;SDS011;4262;50.980;13.892;2024-02-26T05:20:45;34.27;;;19.90;;
8450;SDS011;4262;50.980;13.892;2024-02-26T05:23:11;32.27;;;18.20;;
8450;SDS011;4262;50.980;13.892;2024-02-26T05:25:38;29.97;;;18.07;;
8450;SDS011;4262;50.980;13.892;2024-02-26T05:28:05;38.93;;;19.33;;
8450;SDS011;4262;50.980;13.892;2024-02-26T05:30:33;30.33;;;18.33;;
8450;SDS011;4262;50.980;13.892;2024-02-26T05:33:00;36.30;;;18.43;;
8450;SDS011;4262;50.980;13.892;2024-02-26T05:35:27;33.33;;;18.93;;
8450;SDS011;4262;50.980;13.892;2024-02-26T05:37:54;33.20;;;19.80;;
8450;SDS011;4262;50.980;13.892;2024-02-26T05:40:21;29.10;;;17.87;;
8450;SDS011;4262;50.980;13.892;2024-02-26T05:42:47;29.70;;;18.23;;
8450;SDS011;4262;50.980;13.892;2024-02-26T05:45:14;29.63;;;16.03;;
8450;SDS011;4262;50.980;13.892;2024-02-26T05:47:43;30.17;;;16.63;;
8450;SDS011;4262;50.980;13.892;2024-02-26T05:50:10;37.50;;;18.30;;
8450;SDS011;4262;50.980;13.892;2024-02-26T05:52:37;34.23;;;19.07;;
8450;SDS011;4262;50.980;13.892;2024-02-26T05:55:04;34.43;;;18.10;;
8450;SDS011;4262;50.980;13.892;2024-02-26T05:57:32;41.27;;;18.13;;
8450;SDS011;4262;50.980;13.892;2024-02-26T06:00:00;40.57;;;17.90;;
8450;SDS011;4262;50.980;13.892;2024-02-26T06:02:36;32.77;;;17.77;;
8450;SDS011;4262;50.980;13.892;2024-02-26T06:05:05;34.83;;;17.67;;
8450;SDS011;4262;50.980;13.892;2024-02-26T06:07:34;33.87;;;17.50;;
8450;SDS011;4262;50.980;13.892;2024-02-26T06:10:01;36.87;;;18.67;;
8450;SDS011;4262;50.980;13.892;2024-02-26T06:12:30;34.87;;;18.93;;
8450;SDS011;4262;50.980;13.892;2024-02-26T06:14:58;30.40;;;17.27;;
8450;SDS011;4262;50.980;13.892;2024-02-26T06:17:26;31.00;;;16.93;;
8450;SDS011;4262;50.980;13.892;2024-02-26T06:19:53;35.07;;;18.60;;
8450;SDS011;4262;50.980;13.892;2024-02-26T06:22:21;30.23;;;17.13;;
8450;SDS011;4262;50.980;13.892;2024-02-26T06:24:48;32.93;;;17.40;;
8450;SDS011;4262;50.980;13.892;2024-02-26T06:27:15;30.60;;;17.10;;
8450;SDS011;4262;50.980;13.892;2024-02-26T06:29:41;28.50;;;16.50;;
8450;SDS011;4262;50.980;13.892;2024-02-26T06:32:08;30.30;;;18.10;;
8450;SDS011;4262;50.980;13.892;2024-02-26T06:34:35;28.83;;;16.07;;
8450;SDS011;4262;50.980;13.892;2024-02-26T06:37:03;28.83;;;16.83;;
8450;SDS011;4262;50.980;13.892;2024-02-26T06:39:32;32.53;;;16.60;;
8450;SDS011;4262;50.980;13.892;2024-02-26T06:41:58;37.97;;;19.30;;
8450;SDS011;4262;50.980;13.892;2024-02-26T06:44:27;32.20;;;15.90;;
8450;SDS011;4262;50.980;13.892;2024-02-26T06:46:57;31.50;;;15.80;;
8450;SDS011;4262;50.980;13.892;2024-02-26T06:49:24;29.83;;;17.60;;
8450;SDS011;4262;50.980;13.892;2024-02-26T06:51:51;31.20;;;16.50;;
8450;SDS011;4262;50.980;13.892;2024-02-26T06:54:18;24.53;;;15.23;;
8450;SDS011;4262;50.980;13.892;2024-02-26T06:56:46;34.67;;;16.20;;
8450;SDS011;4262;50.980;13.892;2024-02-26T06:59:13;34.90;;;18.20;;
8450;SDS011;4262;50.980;13.892;2024-02-26T07:01:40;26.77;;;14.80;;
8450;SDS011;4262;50.980;13.892;2024-02-26T07:04:08;33.50;;;17.60;;
8450;SDS011;4262;50.980;13.892;2024-02-26T07:06:36;25.20;;;15.37;;
8450;SDS011;4262;50.980;13.892;2024-02-26T07:09:03;23.57;;;12.43;;
8450;SDS011;4262;50.980;13.892;2024-02-26T07:11:29;28.27;;;14.50;;
8450;SDS011;4262;50.980;13.892;2024-02-26T07:13:58;22.40;;;13.30;;
8450;SDS011;4262;50.980;13.892;2024-02-26T07:16:26;23.20;;;12.90;;
8450;SDS011;4262;50.980;13.892;2024-02-26T07:18:53;27.00;;;15.23;;
8450;SDS011;4262;50.980;13.892;2024-02-26T07:21:20;25.83;;;15.00;;
8450;SDS011;4262;50.980;13.892;2024-02-26T07:23:47;25.10;;;15.00;;
8450;SDS011;4262;50.980;13.892;2024-02-26T07:26:13;22.67;;;14.97;;
8450;SDS011;4262;50.980;13.892;2024-02-26T07:28:40;24.43;;;14.73;;
8450;SDS011;4262;50.980;13.892;2024-02-26T07:31:08;29.13;;;15.53;;
8450;SDS011;4262;50.980;13.892;2024-02-26T07:33:35;25.47;;;13.40;;
8450;SDS011;4262;50.980;13.892;2024-02-26T07:36:02;24.87;;;14.67;;
8450;SDS011;4262;50.980;13.892;2024-02-26T07:38:29;21.60;;;12.23;;
8450;SDS011;4262;50.980;13.892;2024-02-26T07:40:56;23.33;;;13.60;;
8450;SDS011;4262;50.980;13.892;2024-02-26T07:43:23;18.70;;;11.70;;
8450;SDS011;4262;50.980;13.892;2024-02-26T07:45:50;22.90;;;12.40;;
8450;SDS011;4262;50.980;13.892;2024-02-26T07:48:18;27.90;;;14.00;;
8450;SDS011;4262;50.980;13.892;2024-02-26T07:50:45;20.20;;;10.70;;
8450;SDS011;4262;50.980;13.892;2024-02-26T07:53:11;22.40;;;11.23;;
8450;SDS011;4262;50.980;13.892;2024-02-26T07:55:38;19.67;;;10.63;;
8450;SDS011;4262;50.980;13.892;2024-02-26T07:58:05;20.60;;;10.70;;
8450;SDS011;4262;50.980;13.892;2024-02-26T08:00:32;18.67;;;11.10;;
8450;SDS011;4262;50.980;13.892;2024-02-26T08:02:59;18.83;;;10.43;;
8450;SDS011;4262;50.980;13.892;2024-02-26T08:05:27;18.77;;;10.10;;
8450;SDS011;4262;50.980;13.892;2024-02-26T08:07:53;19.47;;;8.57;;
8450;SDS011;4262;50.980;13.892;2024-02-26T08:10:20;16.57;;;10.00;;
8450;SDS011;4262;50.980;13.892;2024-02-26T08:12:47;23.13;;;11.03;;
8450;SDS011;4262;50.980;13.892;2024-02-26T08:15:14;18.57;;;9.87;;
8450;SDS011;4262;50.980;13.892;2024-02-26T08:17:41;17.30;;;10.33;;
8450;SDS011;4262;50.980;13.892;2024-02-26T08:20:08;19.33;;;10.23;;
8450;SDS011;4262;50.980;13.892;2024-02-26T08:22:37;21.60;;;11.23;;
8450;SDS011;4262;50.980;13.892;2024-02-26T08:25:04;19.27;;;11.77;;
8450;SDS011;4262;50.980;13.892;2024-02-26T08:27:34;20.30;;;10.80;;
8450;SDS011;4262;50.980;13.892;2024-02-26T08:30:01;20.17;;;10.40;;
8450;SDS011;4262;50.980;13.892;2024-02-26T08:32:28;18.70;;;10.80;;
8450;SDS011;4262;50.980;13.892;2024-02-26T08:34:57;18.97;;;10.07;;
8450;SDS011;4262;50.980;13.892;2024-02-26T08:37:24;22.20;;;12.60;;
8450;SDS011;4262;50.980;13.892;2024-02-26T08:39:53;25.93;;;12.37;;
8450;SDS011;4262;50.980;13.892;2024-02-26T08:42:20;21.27;;;11.13;;
8450;SDS011;4262;50.980;13.892;2024-02-26T08:44:46;23.80;;;12.00;;
8450;SDS011;4262;50.980;13.892;2024-02-26T08:47:13;19.63;;;11.67;;
8450;SDS011;4262;50.980;13.892;2024-02-26T08:49:42;22.97;;;11.87;;
8450;SDS011;4262;50.980;13.892;2024-02-26T08:52:09;24.13;;;12.00;;
8450;SDS011;4262;50.980;13.892;2024-02-26T08:54:36;19.57;;;10.30;;
8450;SDS011;4262;50.980;13.892;2024-02-26T08:57:04;25.80;;;11.37;;
8450;SDS011;4262;50.980;13.892;2024-02-26T08:59:31;21.10;;;11.40;;
8450;SDS011;4262;50.980;13.892;2024-02-26T09:01:58;21.10;;;11.87;;
8450;SDS011;4262;50.980;13.892;2024-02-26T09:04:24;21.53;;;11.30;;
8450;SDS011;4262;50.980;13.892;2024-02-26T09:06:52;20.40;;;10.80;;
8450;SDS011;4262;50.980;13.892;2024-02-26T09:09:19;21.93;;;10.83;;
8450;SDS011;4262;50.980;13.892;2024-02-26T09:11:47;21.67;;;11.43;;
8450;SDS011;4262;50.980;13.892;2024-02-26T09:14:18;20.37;;;12.20;;
8450;SDS011;4262;50.980;13.892;2024-02-26T09:16:45;19.17;;;10.83;;
8450;SDS011;4262;50.980;13.892;2024-02-26T09:19:13;23.23;;;11.53;;
8450;SDS011;4262;50.980;13.892;2024-02-26T09:21:42;25.00;;;10.50;;
8450;SDS011;4262;50.980;13.892;2024-02-26T09:24:09;21.30;;;11.13;;
8450;SDS011;4262;50.980;13.892;2024-02-26T09:26:36;17.83;;;10.20;;
8450;SDS011;4262;50.980;13.892;2024-02-26T09:29:03;19.23;;;10.57;;
8450;SDS011;4262;50.980;13.892;2024-02-26T09:31:31;18.33;;;10.10;;
8450;SDS011;4262;50.980;13.892;2024-02-26T09:33:59;24.83;;;12.00;;
8450;SDS011;4262;50.980;13.892;2024-02-26T09:36:26;25.13;;;11.20;;
8450;SDS011;4262;50.980;13.892;2024-02-26T09:38:53;23.63;;;11.03;;
8450;SDS011;4262;50.980;13.892;2024-02-26T09:41:20;19.90;;;9.73;;
8450;SDS011;4262;50.980;13.892;2024-02-26T09:43:47;17.00;;;9.40;;
8450;SDS011;4262;50.980;13.892;2024-02-26T09:46:15;20.67;;;10.53;;
8450;SDS011;4262;50.980;13.892;2024-02-26T09:48:46;20.27;;;10.30;;
8450;SDS011;4262;50.980;13.892;2024-02-26T09:51:14;18.97;;;9.40;;
8450;SDS011;4262;50.980;13.892;2024-02-26T09:53:41;22.30;;;10.30;;
8450;SDS011;4262;50.980;13.892;2024-02-26T09:56:11;17.47;;;10.03;;
8450;SDS011;4262;50.980;13.892;2024-02-26T09:58:38;19.97;;;9.47;;
8450;SDS011;4262;50.980;13.892;2024-02-26T10:01:07;19.50;;;9.70;;
8450;SDS011;4262;50.980;13.892;2024-02-26T10:03:38;18.93;;;9.47;;
8450;SDS011;4262;50.980;13.892;2024-02-26T10:06:08;19.53;;;9.43;;
8450;SDS011;4262;50.980;13.892;2024-02-26T10:08:35;21.70;;;10.20;;
8450;SDS011;4262;50.980;13.892;2024-02-26T10:11:02;19.20;;;10.70;;
8450;SDS011;4262;50.980;13.892;2024-02-26T10:13:30;15.63;;;8.30;;
8450;SDS011;4262;50.980;13.892;2024-02-26T10:15:57;19.13;;;10.20;;
8450;SDS011;4262;50.980;13.892;2024-02-26T10:18:25;18.90;;;10.67;;
8450;SDS011;4262;50.980;13.892;2024-02-26T10:23:36;16.10;;;9.50;;
8450;SDS011;4262;50.980;13.892;2024-02-26T10:26:03;18.10;;;9.17;;
8450;SDS011;4262;50.980;13.892;2024-02-26T10:28:31;19.20;;;10.07;;
8450;SDS011;4262;50.980;13.892;2024-02-26T10:30:57;18.70;;;10.40;;
8450;SDS011;4262;50.980;13.892;2024-02-26T10:33:24;18.90;;;10.47;;
8450;SDS011;4262;50.980;13.892;2024-02-26T10:35:51;18.23;;;9.60;;
8450;SDS011;4262;50.980;13.892;2024-02-26T10:38:22;17.40;;;9.00;;
8450;SDS011;4262;50.980;13.892;2024-02-26T10:40:49;21.13;;;10.30;;
8450;SDS011;4262;50.980;13.892;2024-02-26T10:43:16;19.73;;;9.43;;
8450;SDS011;4262;50.980;13.892;2024-02-26T10:45:44;17.40;;;9.33;;
8450;SDS011;4262;50.980;13.892;2024-02-26T10:48:12;18.03;;;9.53;;
8450;SDS011;4262;50.980;13.892;2024-02-26T10:50:40;20.10;;;9.97;;
8450;SDS011;4262;50.980;13.892;2024-02-26T10:53:13;21.30;;;9.40;;
8450;SDS011;4262;50.980;13.892;2024-02-26T10:55:48;19.10;;;9.97;;
8450;SDS011;4262;50.980;13.892;2024-02-26T10:58:16;17.00;;;9.50;;
8450;SDS011;4262;50.980;13.892;2024-02-26T11:00:43;15.80;;;9.73;;
8450;SDS011;4262;50.980;13.892;2024-02-26T11:03:12;20.87;;;10.17;;
8450;SDS011;4262;50.980;13.892;2024-02-26T11:05:41;21.33;;;9.97;;
8450;SDS011;4262;50.980;13.892;2024-02-26T11:08:09;17.60;;;9.60;;
8450;SDS011;4262;50.980;13.892;2024-02-26T11:10:36;17.00;;;9.80;;
8450;SDS011;4262;50.980;13.892;2024-02-26T11:13:05;17.93;;;10.27;;
8450;SDS011;4262;50.980;13.892;2024-02-26T11:15:35;16.20;;;9.07;;
8450;SDS011;4262;50.980;13.892;2024-02-26T11:18:03;19.03;;;10.13;;
8450;SDS011;4262;50.980;13.892;2024-02-26T11:20:31;17.80;;;10.00;;
8450;SDS011;4262;50.980;13.892;2024-02-26T11:22:59;16.77;;;9.70;;
8450;SDS011;4262;50.980;13.892;2024-02-26T11:25:26;16.27;;;8.97;;
8450;SDS011;4262;50.980;13.892;2024-02-26T11:27:54;15.57;;;8.60;;
8450;SDS011;4262;50.980;13.892;2024-02-26T11:30:25;20.70;;;9.97;;
8450;SDS011;4262;50.980;13.892;2024-02-26T11:32:56;17.67;;;10.03;;
8450;SDS011;4262;50.980;13.892;2024-02-26T11:35:23;18.50;;;9.23;;
8450;SDS011;4262;50.980;13.892;2024-02-26T11:37:51;18.93;;;10.10;;
8450;SDS011;4262;50.980;13.892;2024-02-26T11:40:20;23.73;;;10.87;;
8450;SDS011;4262;50.980;13.892;2024-02-26T11:42:48;17.27;;;9.80;;
8450;SDS011;4262;50.980;13.892;2024-02-26T11:48:24;16.83;;;9.13;;
8450;SDS011;4262;50.980;13.892;2024-02-26T11:50:52;18.87;;;8.73;;
8450;SDS011;4262;50.980;13.892;2024-02-26T11:53:20;17.13;;;9.87;;
8450;SDS011;4262;50.980;13.892;2024-02-26T11:58:39;20.20;;;10.20;;
8450;SDS011;4262;50.980;13.892;2024-02-26T12:04:12;18.57;;;9.17;;
8450;SDS011;4262;50.980;13.892;2024-02-26T12:06:45;22.13;;;10.13;;
8450;SDS011;4262;50.980;13.892;2024-02-26T12:09:13;16.87;;;8.90;;
8450;SDS011;4262;50.980;13.892;2024-02-26T12:11:40;16.40;;;9.67;;
8450;SDS011;4262;50.980;13.892;2024-02-26T12:14:08;18.80;;;9.63;;
8450;SDS011;4262;50.980;13.892;2024-02-26T12:16:36;17.90;;;8.83;;
8450;SDS011;4262;50.980;13.892;2024-02-26T12:19:05;16.20;;;8.80;;
8450;SDS011;4262;50.980;13.892;2024-02-26T12:21:34;16.80;;;8.90;;
8450;SDS011;4262;50.980;13.892;2024-02-26T12:24:11;15.63;;;8.40;;
8450;SDS011;4262;50.980;13.892;2024-02-26T12:26:39;16.97;;;9.03;;
8450;SDS011;4262;50.980;13.892;2024-02-26T12:29:06;16.47;;;7.50;;
8450;SDS011;4262;50.980;13.892;2024-02-26T12:31:33;27.20;;;9.30;;
8450;SDS011;4262;50.980;13.892;2024-02-26T12:34:02;16.90;;;9.00;;
8450;SDS011;4262;50.980;13.892;2024-02-26T12:36:30;13.90;;;7.77;;
8450;SDS011;4262;50.980;13.892;2024-02-26T12:38:57;17.60;;;8.20;;
8450;SDS011;4262;50.980;13.892;2024-02-26T12:41:25;15.30;;;8.50;;
8450;SDS011;4262;50.980;13.892;2024-02-26T12:43:53;23.23;;;9.70;;
8450;SDS011;4262;50.980;13.892;2024-02-26T12:46:20;17.37;;;8.90;;
8450;SDS011;4262;50.980;13.892;2024-02-26T12:48:47;16.63;;;8.73;;
8450;SDS011;4262;50.980;13.892;2024-02-26T12:51:14;17.77;;;8.73;;
8450;SDS011;4262;50.980;13.892;2024-02-26T12:53:44;17.43;;;9.23;;
8450;SDS011;4262;50.980;13.892;2024-02-26T12:56:12;17.53;;;8.63;;
8450;SDS011;4262;50.980;13.892;2024-02-26T12:58:38;16.20;;;8.27;;
8450;SDS011;4262;50.980;13.892;2024-02-26T13:01:06;14.23;;;7.73;;
8450;SDS011;4262;50.980;13.892;2024-02-26T13:03:40;16.00;;;8.00;;
8450;SDS011;4262;50.980;13.892;2024-02-26T13:06:07;15.90;;;8.07;;
8450;SDS011;4262;50.980;13.892;2024-02-26T13:08:34;14.80;;;7.47;;
8450;SDS011;4262;50.980;13.892;2024-02-26T13:11:03;15.80;;;8.63;;
8450;SDS011;4262;50.980;13.892;2024-02-26T13:13:30;14.70;;;8.07;;
8450;SDS011;4262;50.980;13.892;2024-02-26T13:16:03;20.13;;;9.80;;
8450;SDS011;4262;50.980;13.892;2024-02-26T13:18:33;19.60;;;10.33;;
8450;SDS011;4262;50.980;13.892;2024-02-26T13:21:07;18.47;;;10.53;;
8450;SDS011;4262;50.980;13.892;2024-02-26T13:23:35;18.57;;;10.20;;
8450;SDS011;4262;50.980;13.892;2024-02-26T13:26:04;19.87;;;10.33;;
8450;SDS011;4262;50.980;13.892;2024-02-26T13:28:31;18.40;;;10.20;;
8450;SDS011;4262;50.980;13.892;2024-02-26T13:30:58;19.97;;;9.77;;
8450;SDS011;4262;50.980;13.892;2024-02-26T13:33:27;17.00;;;9.23;;
8450;SDS011;4262;50.980;13.892;2024-02-26T13:35:55;20.80;;;9.90;;
8450;SDS011;4262;50.980;13.892;2024-02-26T13:38:22;16.23;;;9.60;;
8450;SDS011;4262;50.980;13.892;2024-02-26T13:40:50;20.83;;;10.73;;
8450;SDS011;4262;50.980;13.892;2024-02-26T13:43:18;16.10;;;9.33;;
8450;SDS011;4262;50.980;13.892;2024-02-26T13:45:45;17.90;;;9.53;;
8450;SDS011;4262;50.980;13.892;2024-02-26T13:48:13;21.50;;;10.53;;
8450;SDS011;4262;50.980;13.892;2024-02-26T13:50:41;24.93;;;12.17;;
8450;SDS011;4262;50.980;13.892;2024-02-26T13:53:10;29.13;;;14.60;;
8450;SDS011;4262;50.980;13.892;2024-02-26T13:55:39;23.87;;;13.90;;
8450;SDS011;4262;50.980;13.892;2024-02-26T13:58:08;23.57;;;13.50;;
8450;SDS011;4262;50.980;13.892;2024-02-26T14:00:39;24.00;;;13.57;;
8450;SDS011;4262;50.980;13.892;2024-02-26T14:03:06;23.17;;;12.17;;
8450;SDS011;4262;50.980;13.892;2024-02-26T14:05:34;20.30;;;12.10;;
8450;SDS011;4262;50.980;13.892;2024-02-26T14:08:00;19.30;;;9.50;;
8450;SDS011;4262;50.980;13.892;2024-02-26T14:10:28;17.77;;;9.70;;
8450;SDS011;4262;50.980;13.892;2024-02-26T14:12:55;13.77;;;7.70;;
8450;SDS011;4262;50.980;13.892;2024-02-26T14:15:22;15.47;;;7.80;;
8450;SDS011;4262;50.980;13.892;2024-02-26T14:17:51;46.67;;;42.10;;
8450;SDS011;4262;50.980;13.892;2024-02-26T14:20:21;17.03;;;10.10;;
8450;SDS011;4262;50.980;13.892;2024-02-26T14:22:48;16.93;;;8.50;;
8450;SDS011;4262;50.980;13.892;2024-02-26T14:25:15;112.47;;;59.17;;
8450;SDS011;4262;50.980;13.892;2024-02-26T14:27:41;36.83;;;19.20;;
8450;SDS011;4262;50.980;13.892;2024-02-26T14:30:08;16.50;;;12.30;;
8450;SDS011;4262;50.980;13.892;2024-02-26T14:32:35;16.30;;;11.33;;
8450;SDS011;4262;50.980;13.892;2024-02-26T14:35:05;16.17;;;8.50;;
8450;SDS011;4262;50.980;13.892;2024-02-26T14:37:33;20.50;;;13.43;;
8450;SDS011;4262;50.980;13.892;2024-02-26T14:40:00;13.10;;;7.93;;
8450;SDS011;4262;50.980;13.892;2024-02-26T14:42:28;17.60;;;9.00;;
8450;SDS011;4262;50.980;13.892;2024-02-26T14:44:55;14.83;;;7.53;;
8450;SDS011;4262;50.980;13.892;2024-02-26T14:47:22;15.07;;;8.50;;
8450;SDS011;4262;50.980;13.892;2024-02-26T14:49:48;17.27;;;8.30;;
8450;SDS011;4262;50.980;13.892;2024-02-26T14:52:18;15.53;;;8.67;;